Terminal Aerodrome Forecast
Issued by NWS Portland, OR

Home | Current Version | Previous Version | Text Only | Print | Product List | Glossary On
Versions: 1 2 3 4 5 6 7 8 9 10 11 12 13 14 15 16 17 18
000
FTUS46 KPQR 281950 AAA
TAFSLE
TAF AMD
KSLE 281950Z 2820/2918 18016G23KT P6SM FEW035 OVC090
     FM290300 18010KT P6SM -RA BKN035 OVC060
     FM290800 18015G23KT P6SM -RA OVC030=

USA.gov is the U.S. government's official web portal to all federal, state and local government web resources and services.